KCYS/CYS METAR and TAF weather

Enter ICAO airport designator
Station Type Date Time Source
KCYS METAR 2018/12/13 14:53 UTC NOAA

KCYS 131453Z 32007KT 10SM CLR M07/M14 A3018 RMK AO2 SLP273 T10671139 52010


Station Type Date Time Source
KCYS Decoded METAR 2018/12/13 14:53 UTC NOAA

CHEYENNE AIRPORT, WY, United States (KCYS) 41-09N 104-48W 1865M
Dec 13, 2018 - 09:53 AM EST / 2018.12.13 1453 UTC
Wind: from the NW (320 degrees) at 8 MPH (7 KT):0
Visibility: 10 mile(s):0
Sky conditions: clear
Temperature: 19.9 F (-6.7 C)
Windchill: 10 F (-12 C):1
Dew Point: 7.0 F (-13.9 C)
Relative Humidity: 56%
Pressure (altimeter): 30.18 in. Hg (1022 hPa)
Pressure tendency: 0.03 inches (1.0 hPa) higher than three hours ago
ob: KCYS 131453Z 32007KT 10SM CLR M07/M14 A3018 RMK AO2 SLP273 T10671139 52010
cycle: 15

Station Type Date Time Source
KCYS TAF 2018/12/13 12:34 UTC NOAA

TAF KCYS 131132Z 1312/1412 31015G25KT P6SM SKC
FM131500 30016G26KT P6SM FEW250
FM140100 29012KT P6SM SKC


Example: see airport list